createdAt,value
2019-01-31T00:02:22.596Z,10.48
2019-01-31T00:05:03.572Z,10.75
2019-01-31T00:07:50.674Z,9.48
2019-01-31T00:10:40.961Z,9.93
2019-01-31T00:13:13.173Z,7.62
2019-01-31T00:15:48.022Z,9.58
2019-01-31T00:18:35.191Z,11.90
2019-01-31T00:21:10.243Z,12.37
2019-01-31T00:23:42.478Z,11.85
2019-01-31T00:26:26.307Z,13.68
2019-01-31T00:29:13.116Z,13.10
2019-01-31T00:32:01.801Z,16.60
2019-01-31T00:35:07.067Z,12.47
2019-01-31T00:37:54.528Z,11.70
2019-01-31T00:40:38.355Z,8.45
2019-01-31T00:43:22.118Z,9.60
2019-01-31T00:46:15.337Z,7.53
2019-01-31T00:48:50.476Z,7.97
2019-01-31T00:51:34.592Z,12.15
2019-01-31T00:54:31.093Z,5.75
2019-01-31T00:57:27.327Z,9.70
2019-01-31T00:59:59.559Z,9.95
2019-01-31T01:02:43.301Z,8.00
2019-01-31T01:05:38.754Z,8.13
2019-01-31T01:08:10.975Z,8.78
2019-01-31T01:11:05.595Z,11.35
2019-01-31T01:13:46.289Z,12.78
2019-01-31T01:16:26.885Z,9.85
2019-01-31T01:18:59.082Z,6.95
2019-01-31T01:21:48.323Z,12.37
2019-01-31T01:24:25.954Z,8.28
2019-01-31T01:27:10.085Z,10.55
2019-01-31T01:29:45.161Z,11.88
2019-01-31T01:32:44.269Z,11.22
2019-01-31T01:35:40.596Z,8.63
2019-01-31T01:38:18.057Z,9.95
2019-01-31T01:41:11.147Z,9.75
2019-01-31T01:43:43.383Z,11.68
2019-01-31T01:46:24.083Z,12.93
2019-01-31T01:49:05.066Z,14.20
2019-01-31T01:51:49.025Z,14.05
2019-01-31T01:57:26.785Z,15.23
2019-01-31T01:59:59.020Z,16.62
2019-01-31T02:02:31.256Z,15.40
2019-01-31T02:05:06.265Z,16.37
2019-01-31T02:07:47.413Z,15.53
2019-01-31T02:10:25.465Z,15.05
2019-01-31T02:13:15.692Z,16.02
2019-01-31T02:15:47.921Z,20.08
2019-01-31T02:18:22.925Z,14.45
2019-01-31T02:21:26.442Z,15.98
2019-01-31T02:24:01.401Z,14.43
2019-01-31T02:26:44.987Z,15.13
2019-01-31T02:29:28.892Z,18.87
2019-01-31T02:32:06.863Z,16.67
2019-01-31T02:34:55.790Z,20.00
2019-01-31T02:37:39.894Z,13.72
2019-01-31T02:40:12.121Z,19.48
2019-01-31T02:42:46.827Z,15.18
2019-01-31T02:45:35.414Z,13.88
2019-01-31T02:48:28.621Z,14.38
2019-01-31T02:51:27.891Z,14.28
2019-01-31T02:54:08.763Z,18.95
2019-01-31T02:56:49.887Z,15.20
2019-01-31T02:59:43.293Z,18.92
2019-01-31T03:02:20.914Z,19.52
2019-01-31T03:05:08.442Z,17.20
2019-01-31T03:07:49.739Z,16.35
2019-01-31T03:10:33.977Z,15.23
2019-01-31T03:13:15.305Z,17.82
2019-01-31T03:15:59.405Z,16.90
2019-01-31T03:18:43.499Z,20.02
2019-01-31T03:21:34.903Z,16.60
2019-01-31T03:24:37.043Z,15.13
2019-01-31T03:27:31.693Z,16.93
2019-01-31T03:30:24.590Z,14.85
2019-01-31T03:32:56.508Z,19.30
2019-01-31T03:35:43.623Z,16.97
2019-01-31T03:38:24.757Z,13.32
2019-01-31T03:41:16.330Z,16.50
2019-01-31T03:44:03.160Z,15.15
2019-01-31T03:46:50.239Z,18.55
2019-01-31T03:49:41.596Z,19.15
2019-01-31T03:52:26.035Z,16.00
2019-01-31T03:55:06.869Z,15.98
2019-01-31T03:57:53.964Z,18.02
2019-01-31T04:00:37.982Z,16.90
2019-01-31T04:03:10.245Z,16.85
2019-01-31T04:05:42.479Z,17.62
2019-01-31T04:08:11.715Z,16.52
2019-01-31T04:10:40.912Z,19.98
2019-01-31T04:13:10.091Z,16.27
2019-01-31T04:15:39.595Z,23.70
2019-01-31T04:18:08.865Z,19.00
2019-01-31T04:20:38.057Z,19.37
2019-01-31T04:23:07.229Z,22.67
2019-01-31T04:25:36.431Z,22.02
2019-01-31T04:28:05.669Z,20.27
2019-01-31T04:30:34.874Z,18.12
2019-01-31T04:33:04.170Z,19.82
2019-01-31T04:35:33.352Z,24.55
2019-01-31T04:38:02.462Z,25.30
2019-01-31T04:40:31.864Z,18.17
2019-01-31T04:43:01.294Z,18.45
2019-01-31T04:45:31.507Z,18.55
2019-01-31T04:48:00.727Z,19.52
2019-01-31T04:50:29.919Z,19.40
2019-01-31T04:52:59.112Z,21.93
2019-01-31T04:55:28.305Z,17.30
2019-01-31T04:57:57.521Z,19.98
2019-01-31T05:00:26.795Z,18.15
2019-01-31T05:02:55.979Z,17.15
2019-01-31T05:05:25.180Z,16.60
2019-01-31T05:07:54.366Z,18.75
2019-01-31T05:10:23.563Z,13.80
2019-01-31T05:12:52.793Z,17.02
2019-01-31T05:15:21.989Z,17.55
2019-01-31T05:17:51.178Z,13.48
2019-01-31T05:20:20.304Z,16.82
2019-01-31T05:22:49.523Z,16.05
2019-01-31T05:25:18.805Z,13.58
2019-01-31T05:27:47.936Z,12.00
2019-01-31T05:30:17.549Z,13.38
2019-01-31T05:32:46.723Z,15.05
2019-01-31T05:35:16.084Z,12.53
2019-01-31T05:37:45.284Z,12.15
2019-01-31T05:40:15.459Z,11.12
2019-01-31T05:42:44.616Z,12.68
2019-01-31T05:45:17.244Z,11.15
2019-01-31T05:47:46.591Z,12.60
2019-01-31T05:50:17.007Z,12.88
2019-01-31T05:52:46.274Z,12.30
2019-01-31T05:55:15.882Z,11.83
2019-01-31T05:57:45.059Z,11.45
2019-01-31T06:00:18.180Z,9.98
2019-01-31T06:02:47.406Z,14.15
2019-01-31T06:05:16.724Z,11.78
2019-01-31T06:07:45.923Z,10.60
2019-01-31T06:10:15.162Z,10.35
2019-01-31T06:12:44.434Z,10.18
2019-01-31T06:15:18.591Z,10.53
2019-01-31T06:17:47.845Z,10.10
2019-01-31T06:20:26.608Z,9.48
2019-01-31T06:22:55.903Z,6.83
2019-01-31T06:25:25.097Z,6.50
2019-01-31T06:27:54.197Z,7.50
2019-01-31T06:30:23.460Z,9.43
2019-01-31T06:32:52.975Z,6.47
2019-01-31T06:35:22.183Z,7.97
2019-01-31T06:37:51.394Z,8.70
2019-01-31T06:40:21.408Z,8.08
2019-01-31T06:42:50.609Z,6.97
2019-01-31T06:45:21.718Z,9.55
2019-01-31T06:47:50.955Z,7.55
2019-01-31T06:50:20.160Z,7.47
2019-01-31T06:52:49.340Z,10.18
2019-01-31T06:55:18.665Z,12.80
2019-01-31T06:57:47.854Z,12.28
2019-01-31T07:00:22.291Z,12.00
2019-01-31T07:02:51.827Z,11.43
2019-01-31T07:05:21.062Z,10.43
2019-01-31T07:07:50.238Z,15.90
2019-01-31T07:10:22.251Z,16.40
2019-01-31T07:12:51.460Z,15.80
2019-01-31T07:15:20.620Z,17.48
2019-01-31T07:17:49.903Z,20.62
2019-01-31T07:20:19.154Z,22.45
2019-01-31T07:22:48.361Z,26.97
2019-01-31T07:25:23.268Z,24.43
2019-01-31T07:27:52.524Z,21.77
2019-01-31T07:30:23.241Z,26.85
2019-01-31T07:32:52.454Z,26.15
2019-01-31T07:35:21.640Z,24.63
2019-01-31T07:37:53.034Z,28.57
2019-01-31T07:40:22.954Z,25.12
2019-01-31T07:42:52.129Z,29.87
2019-01-31T07:45:26.496Z,41.75
2019-01-31T07:47:55.721Z,50.25
2019-01-31T07:50:25.152Z,54.10
2019-01-31T07:52:54.689Z,54.95
2019-01-31T07:55:23.874Z,56.35
2019-01-31T07:57:53.044Z,58.02
2019-01-31T08:00:24.757Z,66.90
2019-01-31T08:02:54.093Z,63.30
2019-01-31T08:05:24.726Z,72.80
2019-01-31T08:07:56.341Z,62.27
2019-01-31T08:10:36.949Z,54.30
2019-01-31T08:13:06.299Z,69.82
2019-01-31T08:15:35.568Z,67.27
2019-01-31T08:18:05.767Z,84.13
2019-01-31T08:20:35.080Z,62.45
2019-01-31T08:23:04.653Z,70.60
2019-01-31T08:25:34.039Z,71.80
2019-01-31T08:28:03.546Z,77.27
2019-01-31T08:30:41.526Z,65.83
2019-01-31T08:33:10.840Z,65.62
2019-01-31T08:35:40.016Z,85.90
2019-01-31T08:38:09.296Z,74.27
2019-01-31T08:40:38.477Z,80.60
2019-01-31T08:43:07.648Z,73.07
2019-01-31T08:45:36.865Z,74.45
2019-01-31T08:48:06.220Z,74.55
2019-01-31T08:50:35.867Z,85.60
2019-01-31T08:53:05.204Z,75.28
2019-01-31T08:55:34.374Z,91.40
2019-01-31T08:58:03.867Z,79.30
2019-01-31T09:00:33.073Z,77.82
2019-01-31T09:03:02.267Z,78.10
2019-01-31T09:05:31.542Z,75.35
2019-01-31T09:08:00.789Z,74.30
2019-01-31T09:10:38.729Z,88.67
2019-01-31T09:13:09.653Z,79.00
2019-01-31T09:15:38.872Z,72.78
2019-01-31T09:18:08.292Z,74.45
2019-01-31T09:20:43.655Z,78.25
2019-01-31T09:23:43.159Z,75.52
2019-01-31T09:26:21.170Z,99.20
2019-01-31T09:29:08.051Z,87.42
2019-01-31T09:31:57.732Z,80.95
2019-01-31T09:34:41.890Z,79.42
2019-01-31T09:37:19.745Z,77.65
2019-01-31T09:40:09.624Z,76.25
2019-01-31T09:42:41.778Z,84.87
2019-01-31T09:45:56.326Z,80.22
2019-01-31T09:49:03.278Z,81.45
2019-01-31T09:52:05.456Z,86.25
2019-01-31T09:54:40.275Z,87.65
2019-01-31T10:00:09.385Z,81.55
2019-01-31T10:03:10.543Z,79.62
2019-01-31T10:05:48.463Z,71.87
2019-01-31T10:08:34.724Z,68.50
2019-01-31T10:11:07.175Z,81.45
2019-01-31T10:14:08.130Z,61.28
2019-01-31T10:16:47.107Z,63.92
2019-01-31T10:19:37.482Z,59.30
2019-01-31T10:22:33.494Z,69.77
2019-01-31T10:25:20.743Z,54.38
2019-01-31T10:28:11.177Z,65.35
2019-01-31T10:30:43.438Z,58.45
2019-01-31T10:33:18.328Z,58.08
2019-01-31T10:36:08.427Z,48.13
2019-01-31T10:38:49.423Z,49.63
2019-01-31T10:41:27.099Z,44.25
2019-01-31T10:44:27.731Z,51.02
2019-01-31T10:47:15.070Z,44.58
2019-01-31T10:49:59.312Z,46.98
2019-01-31T10:52:47.748Z,46.65
2019-01-31T10:55:32.142Z,46.88
2019-01-31T10:58:10.473Z,47.35
2019-01-31T11:00:51.773Z,42.30
2019-01-31T11:03:55.802Z,55.10
2019-01-31T11:06:36.700Z,52.58
2019-01-31T11:09:43.538Z,59.58
2019-01-31T11:12:30.349Z,56.08
2019-01-31T11:15:19.294Z,56.23
2019-01-31T11:18:00.087Z,56.28
2019-01-31T11:20:55.131Z,60.00
2019-01-31T11:23:50.477Z,63.73
2019-01-31T11:26:40.001Z,60.38
2019-01-31T11:29:12.235Z,61.18
2019-01-31T11:31:50.284Z,70.62
2019-01-31T11:34:32.668Z,70.78
2019-01-31T11:37:02.045Z,75.50
2019-01-31T11:39:52.125Z,84.42
2019-01-31T11:42:29.866Z,75.20
2019-01-31T11:45:22.886Z,69.62
2019-01-31T11:48:00.782Z,83.82
2019-01-31T11:50:41.452Z,89.60
2019-01-31T11:56:44.057Z,75.30
2019-01-31T11:59:13.261Z,72.50
2019-01-31T12:01:42.446Z,72.97
2019-01-31T12:04:11.742Z,71.82
2019-01-31T12:06:41.088Z,68.40
2019-01-31T12:09:13.501Z,75.17
2019-01-31T12:11:42.703Z,72.12
2019-01-31T12:14:12.132Z,84.07
2019-01-31T12:16:41.483Z,81.40
2019-01-31T12:19:10.807Z,78.80
2019-01-31T12:21:40.128Z,87.70
2019-01-31T12:24:16.155Z,99.90
2019-01-31T12:26:40.480Z,79.30
2019-01-31T12:29:09.751Z,76.60
2019-01-31T12:31:38.952Z,82.50
2019-01-31T12:34:37.066Z,76.25
2019-01-31T12:37:06.318Z,85.42
2019-01-31T12:39:35.508Z,78.10
2019-01-31T12:42:05.112Z,80.57
2019-01-31T12:44:34.324Z,80.38
2019-01-31T12:47:04.516Z,69.03
2019-01-31T12:49:33.705Z,66.30
2019-01-31T12:52:04.356Z,63.75
2019-01-31T12:54:33.678Z,66.45
2019-01-31T12:57:02.951Z,69.07
2019-01-31T12:59:32.166Z,65.30
2019-01-31T13:02:01.475Z,68.00
2019-01-31T13:04:30.637Z,66.28
2019-01-31T13:06:59.851Z,54.70
2019-01-31T13:09:29.155Z,59.33
2019-01-31T13:11:58.449Z,57.78
2019-01-31T13:14:28.542Z,61.30
2019-01-31T13:16:57.865Z,54.42
2019-01-31T13:19:27.049Z,54.40
2019-01-31T13:21:56.237Z,51.92
2019-01-31T13:24:25.423Z,56.25
2019-01-31T13:26:54.603Z,50.15
2019-01-31T13:29:23.798Z,47.10
2019-01-31T13:31:52.976Z,47.85
2019-01-31T13:34:22.163Z,59.80
2019-01-31T13:36:51.371Z,51.58
2019-01-31T13:39:20.551Z,44.65
2019-01-31T13:41:49.733Z,53.17
2019-01-31T13:44:18.936Z,44.25
2019-01-31T13:46:48.185Z,50.58
2019-01-31T13:49:17.947Z,45.95
2019-01-31T13:51:47.242Z,41.53
2019-01-31T13:54:16.419Z,42.78
2019-01-31T13:56:46.118Z,44.83
2019-01-31T13:59:15.376Z,44.03
2019-01-31T14:01:44.557Z,49.77
2019-01-31T14:04:13.745Z,42.30
2019-01-31T14:06:42.954Z,48.38
2019-01-31T14:09:12.436Z,38.75
2019-01-31T14:11:41.619Z,45.05
2019-01-31T14:14:10.820Z,44.40
2019-01-31T14:16:47.123Z,51.00
2019-01-31T14:19:10.958Z,48.78
2019-01-31T14:21:40.140Z,44.55
2019-01-31T14:24:09.339Z,46.10
2019-01-31T14:26:38.559Z,46.08
2019-01-31T14:29:07.747Z,54.25
2019-01-31T14:31:36.930Z,53.55
2019-01-31T14:34:08.979Z,51.42
2019-01-31T14:36:37.172Z,56.98
2019-01-31T14:39:07.571Z,56.23
2019-01-31T14:41:36.755Z,50.25
2019-01-31T14:44:06.191Z,49.25
2019-01-31T14:46:35.367Z,50.48
2019-01-31T14:49:04.951Z,45.45
2019-01-31T14:51:34.152Z,46.90
2019-01-31T14:54:03.335Z,38.42
2019-01-31T14:56:32.537Z,46.77
2019-01-31T14:59:01.734Z,46.37
2019-01-31T15:01:30.914Z,48.90
2019-01-31T15:04:00.096Z,47.25
2019-01-31T15:06:29.312Z,57.75
2019-01-31T15:08:58.484Z,50.83
2019-01-31T15:11:27.678Z,54.85
2019-01-31T15:13:56.893Z,52.93
2019-01-31T15:16:26.065Z,52.25
2019-01-31T15:18:55.256Z,48.28
2019-01-31T15:21:24.421Z,54.30
2019-01-31T15:23:53.603Z,49.58
2019-01-31T15:26:22.783Z,59.13
2019-01-31T15:28:51.979Z,57.27
2019-01-31T15:31:21.161Z,53.13
2019-01-31T15:33:50.323Z,56.00
2019-01-31T15:36:19.587Z,53.28
2019-01-31T15:38:48.775Z,51.18
2019-01-31T15:41:17.967Z,44.83
2019-01-31T15:43:47.185Z,48.50
2019-01-31T15:46:18.002Z,48.58
2019-01-31T15:48:47.388Z,44.98
2019-01-31T15:51:16.495Z,39.85
2019-01-31T15:53:45.679Z,50.23
2019-01-31T15:56:15.039Z,46.60
2019-01-31T15:58:44.235Z,45.70
2019-01-31T16:01:13.507Z,51.13
2019-01-31T16:03:42.807Z,43.40
2019-01-31T16:06:12.118Z,36.38
2019-01-31T16:08:41.294Z,34.30
2019-01-31T16:11:10.510Z,38.08
2019-01-31T16:13:39.691Z,34.40
2019-01-31T16:16:09.043Z,36.08
2019-01-31T16:18:38.266Z,33.67
2019-01-31T16:21:07.449Z,33.00
2019-01-31T16:23:36.716Z,33.15
2019-01-31T16:26:06.020Z,36.63
2019-01-31T16:28:35.218Z,43.92
2019-01-31T16:31:04.542Z,40.78
2019-01-31T16:33:33.739Z,40.95
2019-01-31T16:36:03.261Z,37.23
2019-01-31T16:38:32.447Z,36.88
2019-01-31T16:41:01.655Z,29.98
2019-01-31T16:43:30.845Z,42.27
2019-01-31T16:46:00.124Z,40.65
2019-01-31T16:48:29.329Z,42.20
2019-01-31T16:50:58.548Z,49.38
2019-01-31T16:53:27.725Z,56.08
2019-01-31T16:55:56.918Z,51.77
2019-01-31T16:58:26.104Z,58.30
2019-01-31T17:00:55.305Z,55.58
2019-01-31T17:03:24.527Z,63.10
2019-01-31T17:05:53.708Z,67.78
2019-01-31T17:08:22.987Z,63.13
2019-01-31T17:10:52.302Z,70.60
2019-01-31T17:13:21.507Z,73.33
2019-01-31T17:15:50.832Z,71.82
2019-01-31T17:18:20.009Z,73.67
2019-01-31T17:20:49.200Z,75.57
2019-01-31T17:23:18.467Z,74.65
2019-01-31T17:25:47.659Z,73.90
2019-01-31T17:28:16.840Z,72.70
2019-01-31T17:30:46.043Z,69.53
2019-01-31T17:33:15.230Z,73.95
2019-01-31T17:35:44.414Z,74.65
2019-01-31T17:38:13.612Z,66.40
2019-01-31T17:40:42.935Z,73.90
2019-01-31T17:43:12.194Z,66.80
2019-01-31T17:45:41.468Z,62.33
2019-01-31T17:48:12.162Z,65.40
2019-01-31T17:50:41.421Z,56.10
2019-01-31T17:53:10.649Z,64.27
2019-01-31T17:55:41.777Z,51.28
2019-01-31T17:58:10.713Z,56.80
2019-01-31T18:00:42.707Z,52.15
2019-01-31T18:03:11.986Z,56.68
2019-01-31T18:05:41.265Z,50.40
2019-01-31T18:08:10.545Z,54.00
2019-01-31T18:10:39.738Z,58.02
2019-01-31T18:13:08.930Z,56.60
2019-01-31T18:15:42.317Z,60.52
2019-01-31T18:18:09.069Z,52.33
2019-01-31T18:20:38.416Z,57.55
2019-01-31T18:23:07.625Z,57.17
2019-01-31T18:25:36.749Z,54.38
2019-01-31T18:28:05.992Z,64.32
2019-01-31T18:30:37.259Z,53.98
2019-01-31T18:33:06.552Z,57.90
2019-01-31T18:35:35.746Z,47.67
2019-01-31T18:38:06.097Z,48.80
2019-01-31T18:40:36.221Z,54.42
2019-01-31T18:43:05.851Z,52.27
2019-01-31T18:45:36.210Z,56.55
2019-01-31T18:48:06.624Z,54.58
2019-01-31T18:50:40.648Z,49.15
2019-01-31T18:53:09.982Z,53.92
2019-01-31T18:55:39.295Z,57.00
2019-01-31T18:58:08.415Z,59.65
2019-01-31T19:00:46.189Z,59.75
2019-01-31T19:03:15.523Z,61.00
2019-01-31T19:05:45.087Z,71.90
2019-01-31T19:08:14.382Z,62.83
2019-01-31T19:10:44.031Z,70.42
2019-01-31T19:13:13.470Z,54.70
2019-01-31T19:15:42.648Z,60.08
2019-01-31T19:18:11.867Z,54.55
2019-01-31T19:20:41.227Z,61.55
2019-01-31T19:23:10.475Z,66.60
2019-01-31T19:25:39.674Z,64.40
2019-01-31T19:28:08.992Z,67.90
2019-01-31T19:30:56.383Z,67.10
2019-01-31T19:33:25.566Z,55.45
2019-01-31T19:35:54.775Z,62.93
2019-01-31T19:38:25.614Z,59.08
2019-01-31T19:40:54.793Z,64.20
2019-01-31T19:43:24.016Z,62.75
2019-01-31T19:45:53.288Z,57.65
2019-01-31T19:48:22.750Z,58.87
2019-01-31T19:50:51.956Z,55.95
2019-01-31T19:53:21.149Z,63.90
2019-01-31T19:55:50.401Z,59.45
2019-01-31T19:58:19.620Z,57.88
2019-01-31T20:00:48.798Z,56.05
2019-01-31T20:03:17.993Z,55.50
2019-01-31T20:05:47.189Z,60.50
2019-01-31T20:08:16.473Z,50.88
2019-01-31T20:10:45.769Z,58.25
2019-01-31T20:13:15.079Z,65.08
2019-01-31T20:15:44.347Z,70.72
2019-01-31T20:18:13.691Z,65.08
2019-01-31T20:20:43.030Z,59.65
2019-01-31T20:23:12.188Z,56.90
2019-01-31T20:25:41.374Z,57.62
2019-01-31T20:28:10.550Z,48.65
2019-01-31T20:30:39.824Z,49.98
2019-01-31T20:33:09.226Z,53.95
2019-01-31T20:35:38.488Z,54.83
2019-01-31T20:38:07.747Z,52.67
2019-01-31T20:40:39.101Z,51.95
2019-01-31T20:43:08.550Z,50.08
2019-01-31T20:45:37.794Z,57.95
2019-01-31T20:48:07.386Z,49.48
2019-01-31T20:50:38.237Z,64.95
2019-01-31T20:53:07.946Z,51.48
2019-01-31T20:55:37.280Z,49.95
2019-01-31T20:58:06.933Z,52.30
2019-01-31T21:00:38.462Z,49.77
2019-01-31T21:03:08.576Z,48.42
2019-01-31T21:05:38.311Z,53.10
2019-01-31T21:08:10.344Z,51.58
2019-01-31T21:10:39.608Z,58.30
2019-01-31T21:13:08.862Z,55.25
2019-01-31T21:15:38.037Z,54.93
2019-01-31T21:18:07.751Z,53.15
2019-01-31T21:20:37.505Z,62.13
2019-01-31T21:23:08.106Z,64.40
2019-01-31T21:25:37.362Z,59.75
2019-01-31T21:28:06.637Z,64.77
2019-01-31T21:30:39.687Z,65.25
2019-01-31T21:33:08.945Z,60.88
2019-01-31T21:35:38.305Z,63.92
2019-01-31T21:38:07.579Z,62.62
2019-01-31T21:40:36.771Z,64.03
2019-01-31T21:43:06.423Z,63.95
2019-01-31T21:45:35.752Z,60.58
2019-01-31T21:48:06.091Z,63.42
2019-01-31T21:50:35.627Z,69.75
2019-01-31T21:53:05.041Z,69.62
2019-01-31T21:55:34.337Z,68.52
2019-01-31T21:58:03.907Z,67.67
2019-01-31T22:00:35.341Z,66.80
2019-01-31T22:03:06.273Z,70.90
2019-01-31T22:05:35.553Z,59.30
2019-01-31T22:08:05.493Z,68.22
2019-01-31T22:10:34.672Z,66.80
2019-01-31T22:13:21.917Z,66.82
2019-01-31T22:15:51.185Z,65.25
2019-01-31T22:18:20.341Z,72.15
2019-01-31T22:20:49.529Z,71.35
2019-01-31T22:23:19.043Z,71.10
2019-01-31T22:25:48.230Z,69.97
2019-01-31T22:28:17.427Z,65.50
2019-01-31T22:30:46.619Z,64.87
2019-01-31T22:33:15.801Z,61.35
2019-01-31T22:35:45.082Z,70.57
2019-01-31T22:38:14.253Z,64.67
2019-01-31T22:40:43.414Z,58.68
2019-01-31T22:43:12.642Z,62.83
2019-01-31T22:45:43.944Z,65.12
2019-01-31T22:48:15.790Z,57.48
2019-01-31T22:50:45.033Z,70.40
2019-01-31T22:53:14.210Z,58.02
2019-01-31T22:55:43.334Z,59.35
2019-01-31T22:58:12.541Z,69.32
2019-01-31T23:00:54.844Z,62.45
2019-01-31T23:03:24.184Z,67.72
2019-01-31T23:05:55.844Z,62.25
2019-01-31T23:08:26.834Z,63.23
2019-01-31T23:10:56.189Z,63.23
2019-01-31T23:13:26.378Z,59.05
2019-01-31T23:15:55.565Z,63.65
2019-01-31T23:18:24.757Z,66.40
2019-01-31T23:20:53.945Z,67.32
2019-01-31T23:23:23.137Z,65.65
2019-01-31T23:25:52.348Z,56.13
2019-01-31T23:28:21.535Z,58.83
2019-01-31T23:30:50.771Z,63.23
2019-01-31T23:33:19.976Z,63.92
2019-01-31T23:35:49.442Z,58.95
2019-01-31T23:38:18.550Z,58.42
2019-01-31T23:40:47.804Z,58.70
2019-01-31T23:43:16.931Z,52.08
2019-01-31T23:45:46.253Z,55.85
2019-01-31T23:48:15.446Z,49.38
2019-01-31T23:50:44.756Z,51.75
2019-01-31T23:53:13.960Z,50.35
2019-01-31T23:55:43.169Z,50.98
2019-01-31T23:58:12.258Z,50.80
